sensor_id;sensor_type;location;lat;lon;timestamp;temperature;humidity
52523;DHT22;39648;53.416;6.728;2022-07-29T00:02:14;22.00;55.00
52523;DHT22;39648;53.416;6.728;2022-07-29T00:04:40;21.90;55.10
52523;DHT22;39648;53.416;6.728;2022-07-29T00:07:05;22.00;55.10
52523;DHT22;39648;53.416;6.728;2022-07-29T00:09:31;21.90;55.10
52523;DHT22;39648;53.416;6.728;2022-07-29T00:11:58;21.90;55.10
52523;DHT22;39648;53.416;6.728;2022-07-29T00:14:24;21.90;55.10
52523;DHT22;39648;53.416;6.728;2022-07-29T00:16:50;21.90;55.20
52523;DHT22;39648;53.416;6.728;2022-07-29T00:19:16;21.90;55.20
52523;DHT22;39648;53.416;6.728;2022-07-29T00:21:42;21.90;55.20
52523;DHT22;39648;53.416;6.728;2022-07-29T00:24:08;21.90;55.20
52523;DHT22;39648;53.416;6.728;2022-07-29T00:26:34;21.90;55.30
52523;DHT22;39648;53.416;6.728;2022-07-29T00:29:00;21.90;55.30
52523;DHT22;39648;53.416;6.728;2022-07-29T00:31:26;21.90;55.30
52523;DHT22;39648;53.416;6.728;2022-07-29T00:33:51;21.90;55.40
52523;DHT22;39648;53.416;6.728;2022-07-29T00:36:17;21.90;55.40
52523;DHT22;39648;53.416;6.728;2022-07-29T00:38:43;21.90;55.40
52523;DHT22;39648;53.416;6.728;2022-07-29T00:41:11;21.90;55.50
52523;DHT22;39648;53.416;6.728;2022-07-29T00:43:37;21.90;55.50
52523;DHT22;39648;53.416;6.728;2022-07-29T00:46:02;21.90;55.60
52523;DHT22;39648;53.416;6.728;2022-07-29T00:48:28;21.90;55.60
52523;DHT22;39648;53.416;6.728;2022-07-29T00:50:54;21.80;55.60
52523;DHT22;39648;53.416;6.728;2022-07-29T00:53:20;21.80;55.60
52523;DHT22;39648;53.416;6.728;2022-07-29T00:55:46;21.80;55.70
52523;DHT22;39648;53.416;6.728;2022-07-29T00:58:12;21.80;55.70
52523;DHT22;39648;53.416;6.728;2022-07-29T01:00:39;21.80;55.70
52523;DHT22;39648;53.416;6.728;2022-07-29T01:03:06;21.80;55.80
52523;DHT22;39648;53.416;6.728;2022-07-29T01:05:32;21.80;55.90
52523;DHT22;39648;53.416;6.728;2022-07-29T01:07:58;21.80;56.00
52523;DHT22;39648;53.416;6.728;2022-07-29T01:10:24;21.80;56.00
52523;DHT22;39648;53.416;6.728;2022-07-29T01:12:51;21.80;56.00
52523;DHT22;39648;53.416;6.728;2022-07-29T01:15:18;21.80;56.10
52523;DHT22;39648;53.416;6.728;2022-07-29T01:17:46;21.80;56.10
52523;DHT22;39648;53.416;6.728;2022-07-29T01:25:22;21.80;56.30
52523;DHT22;39648;53.416;6.728;2022-07-29T01:28:01;21.80;56.30
52523;DHT22;39648;53.416;6.728;2022-07-29T01:30:33;21.70;56.40
52523;DHT22;39648;53.416;6.728;2022-07-29T01:33:01;21.70;56.40
52523;DHT22;39648;53.416;6.728;2022-07-29T01:35:28;21.70;56.40
52523;DHT22;39648;53.416;6.728;2022-07-29T01:37:59;21.80;56.50
52523;DHT22;39648;53.416;6.728;2022-07-29T01:40:27;21.70;57.10
52523;DHT22;39648;53.416;6.728;2022-07-29T01:42:55;21.70;56.60
52523;DHT22;39648;53.416;6.728;2022-07-29T01:45:23;21.70;56.60
52523;DHT22;39648;53.416;6.728;2022-07-29T01:47:56;21.70;56.60
52523;DHT22;39648;53.416;6.728;2022-07-29T01:50:26;21.70;56.70
52523;DHT22;39648;53.416;6.728;2022-07-29T01:52:56;21.70;56.80
52523;DHT22;39648;53.416;6.728;2022-07-29T01:55:25;21.70;56.80
52523;DHT22;39648;53.416;6.728;2022-07-29T01:57:52;21.70;56.80
52523;DHT22;39648;53.416;6.728;2022-07-29T02:00:19;21.70;56.80
52523;DHT22;39648;53.416;6.728;2022-07-29T02:02:45;21.70;56.80
52523;DHT22;39648;53.416;6.728;2022-07-29T02:05:15;21.70;56.80
52523;DHT22;39648;53.416;6.728;2022-07-29T02:07:41;21.70;56.80
52523;DHT22;39648;53.416;6.728;2022-07-29T02:10:08;21.70;56.80
52523;DHT22;39648;53.416;6.728;2022-07-29T02:12:34;21.60;56.80
52523;DHT22;39648;53.416;6.728;2022-07-29T02:15:01;21.60;56.80
52523;DHT22;39648;53.416;6.728;2022-07-29T02:17:33;21.60;56.80
52523;DHT22;39648;53.416;6.728;2022-07-29T02:20:00;21.60;56.90
52523;DHT22;39648;53.416;6.728;2022-07-29T02:22:28;21.60;56.90
52523;DHT22;39648;53.416;6.728;2022-07-29T02:24:54;21.60;56.90
52523;DHT22;39648;53.416;6.728;2022-07-29T02:27:20;21.60;56.90
52523;DHT22;39648;53.416;6.728;2022-07-29T02:29:47;21.60;56.90
52523;DHT22;39648;53.416;6.728;2022-07-29T02:32:14;21.60;56.90
52523;DHT22;39648;53.416;6.728;2022-07-29T02:34:41;21.60;56.90
52523;DHT22;39648;53.416;6.728;2022-07-29T02:37:09;21.60;56.90
52523;DHT22;39648;53.416;6.728;2022-07-29T02:39:35;21.60;56.90
52523;DHT22;39648;53.416;6.728;2022-07-29T02:42:03;21.50;56.90
52523;DHT22;39648;53.416;6.728;2022-07-29T02:44:31;21.60;57.00
52523;DHT22;39648;53.416;6.728;2022-07-29T02:47:05;21.50;56.90
52523;DHT22;39648;53.416;6.728;2022-07-29T02:52:01;21.60;56.90
52523;DHT22;39648;53.416;6.728;2022-07-29T02:54:44;21.50;56.90
52523;DHT22;39648;53.416;6.728;2022-07-29T02:57:19;21.50;57.00
52523;DHT22;39648;53.416;6.728;2022-07-29T02:59:47;21.50;57.00
52523;DHT22;39648;53.416;6.728;2022-07-29T03:02:14;21.50;57.00
52523;DHT22;39648;53.416;6.728;2022-07-29T03:04:40;21.50;56.90
52523;DHT22;39648;53.416;6.728;2022-07-29T03:07:07;21.50;56.90
52523;DHT22;39648;53.416;6.728;2022-07-29T03:09:34;21.50;56.90
52523;DHT22;39648;53.416;6.728;2022-07-29T03:12:01;21.50;56.90
52523;DHT22;39648;53.416;6.728;2022-07-29T03:14:27;21.50;57.00
52523;DHT22;39648;53.416;6.728;2022-07-29T03:16:54;21.40;56.80
52523;DHT22;39648;53.416;6.728;2022-07-29T03:19:21;21.50;56.90
52523;DHT22;39648;53.416;6.728;2022-07-29T03:21:47;21.40;56.80
52523;DHT22;39648;53.416;6.728;2022-07-29T03:24:34;21.40;56.80
52523;DHT22;39648;53.416;6.728;2022-07-29T03:27:02;21.40;56.80
52523;DHT22;39648;53.416;6.728;2022-07-29T03:29:28;21.40;56.80
52523;DHT22;39648;53.416;6.728;2022-07-29T03:31:54;21.40;56.80
52523;DHT22;39648;53.416;6.728;2022-07-29T03:34:21;21.40;56.80
52523;DHT22;39648;53.416;6.728;2022-07-29T03:36:47;21.40;56.80
52523;DHT22;39648;53.416;6.728;2022-07-29T03:39:14;21.40;56.80
52523;DHT22;39648;53.416;6.728;2022-07-29T03:41:41;21.40;56.80
52523;DHT22;39648;53.416;6.728;2022-07-29T03:44:08;21.40;56.80
52523;DHT22;39648;53.416;6.728;2022-07-29T03:46:34;21.40;56.80
52523;DHT22;39648;53.416;6.728;2022-07-29T03:49:01;21.40;56.80
52523;DHT22;39648;53.416;6.728;2022-07-29T03:51:28;21.40;56.80
52523;DHT22;39648;53.416;6.728;2022-07-29T03:53:54;21.40;56.80
52523;DHT22;39648;53.416;6.728;2022-07-29T03:56:21;21.40;56.80
52523;DHT22;39648;53.416;6.728;2022-07-29T03:58:49;21.30;56.70
52523;DHT22;39648;53.416;6.728;2022-07-29T04:01:15;21.30;56.70
52523;DHT22;39648;53.416;6.728;2022-07-29T04:03:43;21.30;56.80
52523;DHT22;39648;53.416;6.728;2022-07-29T04:06:10;21.30;56.70
52523;DHT22;39648;53.416;6.728;2022-07-29T04:08:36;21.30;56.70
52523;DHT22;39648;53.416;6.728;2022-07-29T04:11:02;21.30;56.70
52523;DHT22;39648;53.416;6.728;2022-07-29T04:13:28;21.30;56.80
52523;DHT22;39648;53.416;6.728;2022-07-29T04:15:53;21.30;56.80
52523;DHT22;39648;53.416;6.728;2022-07-29T04:18:19;21.30;56.80
52523;DHT22;39648;53.416;6.728;2022-07-29T04:20:45;21.30;56.80
52523;DHT22;39648;53.416;6.728;2022-07-29T04:23:10;21.30;56.90
52523;DHT22;39648;53.416;6.728;2022-07-29T04:25:37;21.30;57.00
52523;DHT22;39648;53.416;6.728;2022-07-29T04:28:03;21.30;57.10
52523;DHT22;39648;53.416;6.728;2022-07-29T04:30:29;21.30;57.20
52523;DHT22;39648;53.416;6.728;2022-07-29T04:32:55;21.40;58.90
52523;DHT22;39648;53.416;6.728;2022-07-29T04:35:20;21.40;58.60
52523;DHT22;39648;53.416;6.728;2022-07-29T04:37:46;21.40;57.60
52523;DHT22;39648;53.416;6.728;2022-07-29T04:40:12;21.30;57.60
52523;DHT22;39648;53.416;6.728;2022-07-29T04:42:38;21.30;57.60
52523;DHT22;39648;53.416;6.728;2022-07-29T04:45:04;21.30;57.80
52523;DHT22;39648;53.416;6.728;2022-07-29T04:47:30;21.40;57.60
52523;DHT22;39648;53.416;6.728;2022-07-29T04:49:55;21.30;57.50
52523;DHT22;39648;53.416;6.728;2022-07-29T04:52:21;21.30;57.50
52523;DHT22;39648;53.416;6.728;2022-07-29T04:54:47;21.30;57.30
52523;DHT22;39648;53.416;6.728;2022-07-29T04:57:13;21.20;57.40
52523;DHT22;39648;53.416;6.728;2022-07-29T04:59:39;21.20;57.40
52523;DHT22;39648;53.416;6.728;2022-07-29T05:02:04;21.30;57.50
52523;DHT22;39648;53.416;6.728;2022-07-29T05:04:30;21.20;57.70
52523;DHT22;39648;53.416;6.728;2022-07-29T05:06:55;21.20;57.70
52523;DHT22;39648;53.416;6.728;2022-07-29T05:09:21;21.30;57.80
52523;DHT22;39648;53.416;6.728;2022-07-29T05:11:47;21.30;57.80
52523;DHT22;39648;53.416;6.728;2022-07-29T05:14:12;21.30;57.80
52523;DHT22;39648;53.416;6.728;2022-07-29T05:16:38;21.20;57.90
52523;DHT22;39648;53.416;6.728;2022-07-29T05:19:05;21.60;58.50
52523;DHT22;39648;53.416;6.728;2022-07-29T05:21:33;21.30;58.00
52523;DHT22;39648;53.416;6.728;2022-07-29T05:23:59;21.20;57.70
52523;DHT22;39648;53.416;6.728;2022-07-29T05:26:26;21.20;57.70
52523;DHT22;39648;53.416;6.728;2022-07-29T05:28:52;21.20;57.70
52523;DHT22;39648;53.416;6.728;2022-07-29T05:31:19;21.20;57.60
52523;DHT22;39648;53.416;6.728;2022-07-29T05:33:45;21.20;57.50
52523;DHT22;39648;53.416;6.728;2022-07-29T05:36:11;21.10;57.40
52523;DHT22;39648;53.416;6.728;2022-07-29T05:38:37;21.10;57.40
52523;DHT22;39648;53.416;6.728;2022-07-29T05:41:03;21.10;57.40
52523;DHT22;39648;53.416;6.728;2022-07-29T05:43:29;21.10;57.30
52523;DHT22;39648;53.416;6.728;2022-07-29T05:45:55;21.10;57.30
52523;DHT22;39648;53.416;6.728;2022-07-29T05:48:21;21.10;57.30
52523;DHT22;39648;53.416;6.728;2022-07-29T05:50:47;21.10;57.20
52523;DHT22;39648;53.416;6.728;2022-07-29T05:53:13;21.10;57.30
52523;DHT22;39648;53.416;6.728;2022-07-29T05:55:39;21.10;57.20
52523;DHT22;39648;53.416;6.728;2022-07-29T05:58:05;21.10;57.30
52523;DHT22;39648;53.416;6.728;2022-07-29T06:00:30;21.10;57.20
52523;DHT22;39648;53.416;6.728;2022-07-29T06:02:56;21.10;57.30
52523;DHT22;39648;53.416;6.728;2022-07-29T06:05:22;21.00;57.20
52523;DHT22;39648;53.416;6.728;2022-07-29T06:07:48;21.10;57.30
52523;DHT22;39648;53.416;6.728;2022-07-29T06:10:14;21.10;57.30
52523;DHT22;39648;53.416;6.728;2022-07-29T06:12:40;21.00;57.20
52523;DHT22;39648;53.416;6.728;2022-07-29T06:15:06;21.00;57.20
52523;DHT22;39648;53.416;6.728;2022-07-29T06:17:32;21.00;57.30
52523;DHT22;39648;53.416;6.728;2022-07-29T06:19:58;21.00;57.40
52523;DHT22;39648;53.416;6.728;2022-07-29T06:22:23;21.00;57.30
52523;DHT22;39648;53.416;6.728;2022-07-29T06:24:49;21.00;57.30
52523;DHT22;39648;53.416;6.728;2022-07-29T06:27:15;21.00;57.40
52523;DHT22;39648;53.416;6.728;2022-07-29T06:29:41;21.00;57.30
52523;DHT22;39648;53.416;6.728;2022-07-29T06:32:07;21.00;57.30
52523;DHT22;39648;53.416;6.728;2022-07-29T06:34:34;21.00;57.40
52523;DHT22;39648;53.416;6.728;2022-07-29T06:37:00;21.00;57.50
52523;DHT22;39648;53.416;6.728;2022-07-29T06:39:30;21.00;57.40
52523;DHT22;39648;53.416;6.728;2022-07-29T06:41:56;21.00;57.40
52523;DHT22;39648;53.416;6.728;2022-07-29T06:44:21;21.00;57.40
52523;DHT22;39648;53.416;6.728;2022-07-29T06:46:47;21.00;57.50
52523;DHT22;39648;53.416;6.728;2022-07-29T06:49:14;21.00;57.60
52523;DHT22;39648;53.416;6.728;2022-07-29T06:51:40;21.00;57.60
52523;DHT22;39648;53.416;6.728;2022-07-29T06:54:05;21.00;57.70
52523;DHT22;39648;53.416;6.728;2022-07-29T06:56:32;20.90;57.60
52523;DHT22;39648;53.416;6.728;2022-07-29T06:58:57;20.90;57.60
52523;DHT22;39648;53.416;6.728;2022-07-29T07:01:23;21.00;57.70
52523;DHT22;39648;53.416;6.728;2022-07-29T07:03:49;21.00;57.70
52523;DHT22;39648;53.416;6.728;2022-07-29T07:06:14;21.00;57.80
52523;DHT22;39648;53.416;6.728;2022-07-29T07:08:40;20.90;57.70
52523;DHT22;39648;53.416;6.728;2022-07-29T07:11:06;20.90;57.70
52523;DHT22;39648;53.416;6.728;2022-07-29T07:13:32;20.90;57.70
52523;DHT22;39648;53.416;6.728;2022-07-29T07:16:00;22.10;58.40
52523;DHT22;39648;53.416;6.728;2022-07-29T07:18:26;20.90;57.80
52523;DHT22;39648;53.416;6.728;2022-07-29T07:20:51;20.90;57.80
52523;DHT22;39648;53.416;6.728;2022-07-29T07:23:17;21.00;57.90
52523;DHT22;39648;53.416;6.728;2022-07-29T07:25:43;20.90;57.90
52523;DHT22;39648;53.416;6.728;2022-07-29T07:28:08;20.90;57.90
52523;DHT22;39648;53.416;6.728;2022-07-29T07:30:34;21.00;58.60
52523;DHT22;39648;53.416;6.728;2022-07-29T07:33:00;20.90;58.00
52523;DHT22;39648;53.416;6.728;2022-07-29T07:35:26;20.90;57.90
52523;DHT22;39648;53.416;6.728;2022-07-29T07:37:54;20.90;57.90
52523;DHT22;39648;53.416;6.728;2022-07-29T07:40:20;20.90;57.90
52523;DHT22;39648;53.416;6.728;2022-07-29T07:42:45;20.90;57.90
52523;DHT22;39648;53.416;6.728;2022-07-29T07:45:11;20.90;58.00
52523;DHT22;39648;53.416;6.728;2022-07-29T07:47:37;20.90;58.00
52523;DHT22;39648;53.416;6.728;2022-07-29T07:50:04;20.90;58.10
52523;DHT22;39648;53.416;6.728;2022-07-29T07:52:30;20.90;58.10
52523;DHT22;39648;53.416;6.728;2022-07-29T07:54:56;20.90;58.10
52523;DHT22;39648;53.416;6.728;2022-07-29T07:57:21;20.90;58.10
52523;DHT22;39648;53.416;6.728;2022-07-29T07:59:47;20.90;58.10
52523;DHT22;39648;53.416;6.728;2022-07-29T08:02:12;20.90;58.10
52523;DHT22;39648;53.416;6.728;2022-07-29T08:04:38;20.90;58.10
52523;DHT22;39648;53.416;6.728;2022-07-29T08:07:06;20.90;58.10
52523;DHT22;39648;53.416;6.728;2022-07-29T08:09:31;20.90;58.10
52523;DHT22;39648;53.416;6.728;2022-07-29T08:11:58;20.90;58.10
52523;DHT22;39648;53.416;6.728;2022-07-29T08:14:24;20.90;58.10
52523;DHT22;39648;53.416;6.728;2022-07-29T08:16:50;20.90;58.10
52523;DHT22;39648;53.416;6.728;2022-07-29T08:19:16;20.90;58.20
52523;DHT22;39648;53.416;6.728;2022-07-29T08:21:42;20.90;58.10
52523;DHT22;39648;53.416;6.728;2022-07-29T08:24:07;20.90;58.10
52523;DHT22;39648;53.416;6.728;2022-07-29T08:26:52;20.90;58.10
52523;DHT22;39648;53.416;6.728;2022-07-29T08:29:17;20.90;58.20
52523;DHT22;39648;53.416;6.728;2022-07-29T08:31:43;20.90;58.20
52523;DHT22;39648;53.416;6.728;2022-07-29T08:34:09;20.90;58.10
52523;DHT22;39648;53.416;6.728;2022-07-29T08:36:34;20.90;58.20
52523;DHT22;39648;53.416;6.728;2022-07-29T08:39:00;20.90;58.20
52523;DHT22;39648;53.416;6.728;2022-07-29T08:41:26;20.90;58.10
52523;DHT22;39648;53.416;6.728;2022-07-29T08:43:52;20.90;58.10
52523;DHT22;39648;53.416;6.728;2022-07-29T08:46:18;20.90;58.40
52523;DHT22;39648;53.416;6.728;2022-07-29T08:48:44;20.90;58.10
52523;DHT22;39648;53.416;6.728;2022-07-29T08:51:14;20.90;58.10
52523;DHT22;39648;53.416;6.728;2022-07-29T08:53:42;20.90;58.10
52523;DHT22;39648;53.416;6.728;2022-07-29T08:56:10;20.90;58.10
52523;DHT22;39648;53.416;6.728;2022-07-29T08:58:37;20.90;58.00
52523;DHT22;39648;53.416;6.728;2022-07-29T09:01:03;20.90;58.10
52523;DHT22;39648;53.416;6.728;2022-07-29T09:03:30;20.90;58.10
52523;DHT22;39648;53.416;6.728;2022-07-29T09:05:57;20.90;58.10
52523;DHT22;39648;53.416;6.728;2022-07-29T09:08:24;20.90;58.00
52523;DHT22;39648;53.416;6.728;2022-07-29T09:10:50;20.90;58.10
52523;DHT22;39648;53.416;6.728;2022-07-29T09:13:17;20.90;58.00
52523;DHT22;39648;53.416;6.728;2022-07-29T09:15:43;21.30;58.20
52523;DHT22;39648;53.416;6.728;2022-07-29T09:18:09;20.90;58.00
52523;DHT22;39648;53.416;6.728;2022-07-29T09:20:36;20.90;58.10
52523;DHT22;39648;53.416;6.728;2022-07-29T09:23:20;20.90;58.10
52523;DHT22;39648;53.416;6.728;2022-07-29T09:25:47;21.20;58.20
52523;DHT22;39648;53.416;6.728;2022-07-29T09:28:14;20.90;58.10
52523;DHT22;39648;53.416;6.728;2022-07-29T09:30:50;20.90;58.10
52523;DHT22;39648;53.416;6.728;2022-07-29T09:33:16;20.90;58.10
52523;DHT22;39648;53.416;6.728;2022-07-29T09:35:42;20.90;58.10
52523;DHT22;39648;53.416;6.728;2022-07-29T09:38:10;20.90;58.10
52523;DHT22;39648;53.416;6.728;2022-07-29T09:40:36;20.90;58.10
52523;DHT22;39648;53.416;6.728;2022-07-29T09:43:10;20.90;58.10
52523;DHT22;39648;53.416;6.728;2022-07-29T09:45:36;21.00;58.20
52523;DHT22;39648;53.416;6.728;2022-07-29T09:48:13;21.00;58.20
52523;DHT22;39648;53.416;6.728;2022-07-29T09:50:40;21.00;58.20
52523;DHT22;39648;53.416;6.728;2022-07-29T09:53:06;21.00;58.20
52523;DHT22;39648;53.416;6.728;2022-07-29T09:55:49;20.90;58.20
52523;DHT22;39648;53.416;6.728;2022-07-29T09:58:18;20.90;58.20
52523;DHT22;39648;53.416;6.728;2022-07-29T10:00:45;20.90;58.20
52523;DHT22;39648;53.416;6.728;2022-07-29T10:03:11;21.00;58.30
52523;DHT22;39648;53.416;6.728;2022-07-29T10:05:37;21.00;58.40
52523;DHT22;39648;53.416;6.728;2022-07-29T10:08:04;21.00;58.30
52523;DHT22;39648;53.416;6.728;2022-07-29T10:10:31;21.00;58.40
52523;DHT22;39648;53.416;6.728;2022-07-29T10:12:58;21.00;58.40
52523;DHT22;39648;53.416;6.728;2022-07-29T10:15:24;21.00;58.40
52523;DHT22;39648;53.416;6.728;2022-07-29T10:17:51;21.00;58.40
52523;DHT22;39648;53.416;6.728;2022-07-29T10:20:17;21.00;58.40
52523;DHT22;39648;53.416;6.728;2022-07-29T10:22:42;21.00;58.40
52523;DHT22;39648;53.416;6.728;2022-07-29T10:25:09;21.00;58.50
52523;DHT22;39648;53.416;6.728;2022-07-29T10:27:36;21.00;58.40
52523;DHT22;39648;53.416;6.728;2022-07-29T10:30:03;21.00;58.50
52523;DHT22;39648;53.416;6.728;2022-07-29T10:35:18;21.00;58.50
52523;DHT22;39648;53.416;6.728;2022-07-29T10:37:48;21.00;58.50
52523;DHT22;39648;53.416;6.728;2022-07-29T10:43:06;21.00;58.60
52523;DHT22;39648;53.416;6.728;2022-07-29T10:45:34;21.00;58.70
52523;DHT22;39648;53.416;6.728;2022-07-29T10:48:03;21.00;58.60
52523;DHT22;39648;53.416;6.728;2022-07-29T10:53:15;21.00;58.70
52523;DHT22;39648;53.416;6.728;2022-07-29T10:55:41;21.00;58.70
52523;DHT22;39648;53.416;6.728;2022-07-29T11:00:36;21.00;58.80
52523;DHT22;39648;53.416;6.728;2022-07-29T11:03:02;21.00;58.70
52523;DHT22;39648;53.416;6.728;2022-07-29T11:05:27;21.00;58.70
52523;DHT22;39648;53.416;6.728;2022-07-29T11:10:37;21.00;58.80
52523;DHT22;39648;53.416;6.728;2022-07-29T11:13:03;21.10;58.80
52523;DHT22;39648;53.416;6.728;2022-07-29T11:15:29;21.00;58.70
52523;DHT22;39648;53.416;6.728;2022-07-29T11:20:36;21.10;58.80
52523;DHT22;39648;53.416;6.728;2022-07-29T11:23:32;21.00;58.80
52523;DHT22;39648;53.416;6.728;2022-07-29T11:28:33;21.10;58.80
52523;DHT22;39648;53.416;6.728;2022-07-29T11:30:59;21.00;58.80
52523;DHT22;39648;53.416;6.728;2022-07-29T11:33:26;21.10;58.90
52523;DHT22;39648;53.416;6.728;2022-07-29T11:36:08;21.10;58.90
52523;DHT22;39648;53.416;6.728;2022-07-29T11:38:34;21.10;58.90
52523;DHT22;39648;53.416;6.728;2022-07-29T11:41:19;21.10;58.90
52523;DHT22;39648;53.416;6.728;2022-07-29T11:43:48;21.10;59.00
52523;DHT22;39648;53.416;6.728;2022-07-29T11:46:14;21.10;59.00
52523;DHT22;39648;53.416;6.728;2022-07-29T11:48:41;21.10;59.00
52523;DHT22;39648;53.416;6.728;2022-07-29T11:51:09;21.10;59.00
52523;DHT22;39648;53.416;6.728;2022-07-29T11:53:35;21.10;59.10
52523;DHT22;39648;53.416;6.728;2022-07-29T11:56:01;21.10;59.20
52523;DHT22;39648;53.416;6.728;2022-07-29T11:58:27;21.10;59.20
52523;DHT22;39648;53.416;6.728;2022-07-29T12:00:53;21.10;59.20
52523;DHT22;39648;53.416;6.728;2022-07-29T12:03:25;21.10;59.20
52523;DHT22;39648;53.416;6.728;2022-07-29T12:05:51;21.10;59.20
52523;DHT22;39648;53.416;6.728;2022-07-29T12:08:18;21.10;59.30
52523;DHT22;39648;53.416;6.728;2022-07-29T12:10:45;21.10;59.40
52523;DHT22;39648;53.416;6.728;2022-07-29T12:13:11;21.10;59.40
52523;DHT22;39648;53.416;6.728;2022-07-29T12:15:38;21.10;59.40
52523;DHT22;39648;53.416;6.728;2022-07-29T12:18:10;21.10;59.50
52523;DHT22;39648;53.416;6.728;2022-07-29T12:20:36;21.10;59.50
52523;DHT22;39648;53.416;6.728;2022-07-29T12:23:06;21.10;59.50
52523;DHT22;39648;53.416;6.728;2022-07-29T12:25:33;21.10;59.70
52523;DHT22;39648;53.416;6.728;2022-07-29T12:28:00;21.20;59.70
52523;DHT22;39648;53.416;6.728;2022-07-29T12:30:34;21.20;59.80
52523;DHT22;39648;53.416;6.728;2022-07-29T12:33:00;21.20;60.20
52523;DHT22;39648;53.416;6.728;2022-07-29T12:35:26;21.20;60.10
52523;DHT22;39648;53.416;6.728;2022-07-29T12:37:52;21.20;60.50
52523;DHT22;39648;53.416;6.728;2022-07-29T12:40:18;21.20;60.50
52523;DHT22;39648;53.416;6.728;2022-07-29T12:45:28;21.20;60.30
52523;DHT22;39648;53.416;6.728;2022-07-29T12:47:54;21.20;60.20
52523;DHT22;39648;53.416;6.728;2022-07-29T12:50:20;21.30;60.40
52523;DHT22;39648;53.416;6.728;2022-07-29T12:52:46;21.30;60.30
52523;DHT22;39648;53.416;6.728;2022-07-29T12:55:13;21.30;60.20
52523;DHT22;39648;53.416;6.728;2022-07-29T12:57:44;21.30;60.30
52523;DHT22;39648;53.416;6.728;2022-07-29T13:00:14;21.30;60.20
52523;DHT22;39648;53.416;6.728;2022-07-29T13:02:41;21.30;60.10
52523;DHT22;39648;53.416;6.728;2022-07-29T13:05:08;21.30;60.10
52523;DHT22;39648;53.416;6.728;2022-07-29T13:07:34;21.30;60.20
52523;DHT22;39648;53.416;6.728;2022-07-29T13:10:11;21.30;60.20
52523;DHT22;39648;53.416;6.728;2022-07-29T13:12:38;21.40;60.60
52523;DHT22;39648;53.416;6.728;2022-07-29T13:15:12;21.40;60.40
52523;DHT22;39648;53.416;6.728;2022-07-29T13:17:39;21.40;60.50
52523;DHT22;39648;53.416;6.728;2022-07-29T13:20:06;21.40;60.60
52523;DHT22;39648;53.416;6.728;2022-07-29T13:22:34;21.40;60.40
52523;DHT22;39648;53.416;6.728;2022-07-29T13:25:01;21.40;60.40
52523;DHT22;39648;53.416;6.728;2022-07-29T13:27:29;21.40;60.20
52523;DHT22;39648;53.416;6.728;2022-07-29T13:29:56;21.40;60.00
52523;DHT22;39648;53.416;6.728;2022-07-29T13:32:23;21.50;60.10
52523;DHT22;39648;53.416;6.728;2022-07-29T13:34:49;21.50;59.90
52523;DHT22;39648;53.416;6.728;2022-07-29T13:37:15;21.50;59.90
52523;DHT22;39648;53.416;6.728;2022-07-29T13:39:42;21.50;60.00
52523;DHT22;39648;53.416;6.728;2022-07-29T13:42:08;21.50;59.90
52523;DHT22;39648;53.416;6.728;2022-07-29T13:44:34;21.50;59.80
52523;DHT22;39648;53.416;6.728;2022-07-29T13:47:00;21.50;59.90
52523;DHT22;39648;53.416;6.728;2022-07-29T13:49:26;21.50;59.80
52523;DHT22;39648;53.416;6.728;2022-07-29T13:51:53;21.50;59.80
52523;DHT22;39648;53.416;6.728;2022-07-29T13:54:19;21.60;59.90
52523;DHT22;39648;53.416;6.728;2022-07-29T13:56:45;21.60;60.00
52523;DHT22;39648;53.416;6.728;2022-07-29T13:59:11;21.60;60.10
52523;DHT22;39648;53.416;6.728;2022-07-29T14:01:37;21.60;60.00
52523;DHT22;39648;53.416;6.728;2022-07-29T14:04:03;21.60;59.90
52523;DHT22;39648;53.416;6.728;2022-07-29T14:06:29;21.60;59.80
52523;DHT22;39648;53.416;6.728;2022-07-29T14:08:55;21.60;59.80
52523;DHT22;39648;53.416;6.728;2022-07-29T14:11:21;21.60;59.80
52523;DHT22;39648;53.416;6.728;2022-07-29T14:13:46;21.60;59.70
52523;DHT22;39648;53.416;6.728;2022-07-29T14:16:13;21.70;59.60
52523;DHT22;39648;53.416;6.728;2022-07-29T14:18:39;21.60;59.50
52523;DHT22;39648;53.416;6.728;2022-07-29T14:21:04;21.60;59.50
52523;DHT22;39648;53.416;6.728;2022-07-29T14:23:30;21.60;59.40
52523;DHT22;39648;53.416;6.728;2022-07-29T14:25:56;21.70;59.40
52523;DHT22;39648;53.416;6.728;2022-07-29T14:28:22;21.70;59.30
52523;DHT22;39648;53.416;6.728;2022-07-29T14:30:47;21.70;59.30
52523;DHT22;39648;53.416;6.728;2022-07-29T14:33:13;21.70;59.20
52523;DHT22;39648;53.416;6.728;2022-07-29T14:35:39;21.80;59.20
52523;DHT22;39648;53.416;6.728;2022-07-29T14:38:04;21.70;59.10
52523;DHT22;39648;53.416;6.728;2022-07-29T14:40:30;21.80;59.50
52523;DHT22;39648;53.416;6.728;2022-07-29T14:42:56;21.80;58.60
52523;DHT22;39648;53.416;6.728;2022-07-29T14:45:23;21.80;58.70
52523;DHT22;39648;53.416;6.728;2022-07-29T14:47:49;21.80;58.60
52523;DHT22;39648;53.416;6.728;2022-07-29T14:50:16;21.80;58.60
52523;DHT22;39648;53.416;6.728;2022-07-29T14:52:41;21.80;58.60
52523;DHT22;39648;53.416;6.728;2022-07-29T14:55:07;21.90;58.70
52523;DHT22;39648;53.416;6.728;2022-07-29T14:57:33;21.90;58.50
52523;DHT22;39648;53.416;6.728;2022-07-29T14:59:58;21.90;58.50
52523;DHT22;39648;53.416;6.728;2022-07-29T15:02:24;21.90;58.70
52523;DHT22;39648;53.416;6.728;2022-07-29T15:04:50;21.90;58.90
52523;DHT22;39648;53.416;6.728;2022-07-29T15:07:16;21.90;58.80
52523;DHT22;39648;53.416;6.728;2022-07-29T15:09:42;21.90;58.80
52523;DHT22;39648;53.416;6.728;2022-07-29T15:12:08;22.00;58.80
52523;DHT22;39648;53.416;6.728;2022-07-29T15:14:35;22.00;58.70
52523;DHT22;39648;53.416;6.728;2022-07-29T15:17:01;22.00;58.60
52523;DHT22;39648;53.416;6.728;2022-07-29T15:19:27;22.00;58.60
52523;DHT22;39648;53.416;6.728;2022-07-29T15:21:53;22.00;58.60
52523;DHT22;39648;53.416;6.728;2022-07-29T15:24:19;22.00;58.60
52523;DHT22;39648;53.416;6.728;2022-07-29T15:26:44;22.10;58.60
52523;DHT22;39648;53.416;6.728;2022-07-29T15:29:10;22.10;58.60
52523;DHT22;39648;53.416;6.728;2022-07-29T15:31:36;22.10;58.50
52523;DHT22;39648;53.416;6.728;2022-07-29T15:34:01;22.10;58.50
52523;DHT22;39648;53.416;6.728;2022-07-29T15:36:28;22.10;58.50
52523;DHT22;39648;53.416;6.728;2022-07-29T15:38:53;22.10;58.50
52523;DHT22;39648;53.416;6.728;2022-07-29T15:41:19;22.10;58.50
52523;DHT22;39648;53.416;6.728;2022-07-29T15:43:45;22.10;58.40
52523;DHT22;39648;53.416;6.728;2022-07-29T15:46:13;22.10;58.50
52523;DHT22;39648;53.416;6.728;2022-07-29T15:48:57;22.10;58.40
52523;DHT22;39648;53.416;6.728;2022-07-29T15:51:23;22.10;58.40
52523;DHT22;39648;53.416;6.728;2022-07-29T15:53:49;22.10;58.70
52523;DHT22;39648;53.416;6.728;2022-07-29T15:56:15;22.20;58.40
52523;DHT22;39648;53.416;6.728;2022-07-29T15:58:41;22.20;58.40